Belleoram, Canada
Current Conditions -  °F | °C
As of 9:00 AM on Sunday 23 Nov 2014 (Local Time) from LFVP Reporting Station
Light Rain Light Rain  
Wind Chill: 27°   Ceiling: 1100
Heat Index: 37°   Visibility: 6mi
Dew Point: 36°   Wind: 20mph
Humidity: 93%   Direction: 270°W
Pressure: 29.77"   Gusts: NA
Location:  47.52°N, 55.45°W
Report Text: LFVP 231200Z 27017KT 9999 -RA BKN011 OVC016 03/02 Q1008 NOSIG
Loading
Personal Weather Stations






























Interactive Weather Map New forecast layout! Learn more

10-Day Weather Forecast

Advertisements
Track Severe Weather on mobile